Time;durP1;ratioP1;P1;durP2;ratioP2;P2;SDS_P1;SDS_P2;PMS_P1;PMS_P2;Temp;Humidity;BMP_temperature;BMP_pressure;BME280_temperature;BME280_humidity;BME280_pressure;Samples;Min_cycle;Max_cycle;Signal;HPM_P1;HPM_P2
2023/12/10 00:00:43;;;;;;;30.17;5.15;;;;;;;8.83;100.00;99799.88;6312177;22;19999;-90
2023/12/10 00:03:20;;;;;;;24.70;5.15;;;;;;;8.64;100.00;99772.63;6311789;22;20399;-91
2023/12/10 00:05:52;;;;;;;27.63;4.85;;;;;;;8.60;100.00;99765.59;6314752;22;20500;-91
2023/12/10 00:08:20;;;;;;;30.52;5.18;;;;;;;8.42;100.00;99741.00;6312002;22;20333;-90
2023/12/10 00:10:48;;;;;;;27.50;4.32;;;;;;;8.84;100.00;99806.91;6312108;22;20009;-90
2023/12/10 00:13:19;;;;;;;29.50;4.90;;;;;;;8.57;100.00;99757.72;6286387;22;20017;-92
2023/12/10 00:15:44;;;;;;;23.40;4.80;;;;;;;8.69;100.00;99784.94;6311903;22;20007;-89
2023/12/10 00:18:13;;;;;;;28.48;4.82;;;;;;;8.54;100.00;99750.69;6339754;22;20457;-90
2023/12/10 00:20:41;;;;;;;30.83;4.20;;;;;;;8.70;100.00;99784.06;6312237;22;20063;-92
2023/12/10 00:23:11;;;;;;;32.20;6.25;;;;;;;8.52;100.00;99731.34;6312186;22;20007;-90
2023/12/10 00:25:42;;;;;;;29.50;4.97;;;;;;;8.71;100.00;99774.41;6339577;22;20388;-89
2023/12/10 00:28:10;;;;;;;21.15;4.78;;;;;;;8.93;100.00;99809.53;6311785;22;20064;-89
2023/12/10 00:30:41;;;;;;;24.88;4.68;;;;;;;8.76;100.00;99796.34;6339593;22;20029;-90
2023/12/10 00:33:09;;;;;;;28.15;5.07;;;;;;;8.71;100.00;99791.06;6339548;22;20003;-91
2023/12/10 00:35:35;;;;;;;23.23;3.92;;;;;;;8.69;100.00;99787.56;6339715;22;20082;-89
2023/12/10 00:38:11;;;;;;;28.95;4.80;;;;;;;8.95;100.00;99834.09;6339025;22;20041;-90
2023/12/10 00:40:36;;;;;;;23.92;4.53;;;;;;;8.77;100.00;99819.16;6339701;22;20003;-89
2023/12/10 00:43:04;;;;;;;28.60;5.25;;;;;;;8.72;100.00;99789.31;6311917;22;20003;-92
2023/12/10 00:45:30;;;;;;;19.17;4.18;;;;;;;8.79;100.00;99812.16;6312183;22;20015;-90
2023/12/10 00:48:03;;;;;;;23.52;4.07;;;;;;;8.58;100.00;99767.38;6312315;22;20038;-90
2023/12/10 00:50:33;;;;;;;26.33;4.38;;;;;;;8.71;100.00;99787.56;6288510;22;20107;-91
2023/12/10 00:53:12;;;;;;;;;;;;;;;;;;;;;
2023/12/10 00:55:41;;;;;;;27.75;4.90;;;;;;;8.97;99.96;99848.19;6339462;22;20087;-90
2023/12/10 00:58:11;;;;;;;18.90;3.97;;;;;;;8.90;100.00;99859.56;6311623;22;20023;-90
2023/12/10 01:00:49;;;;;;;;;;;;;;;;;;;;;
2023/12/10 01:03:31;;;;;;;21.40;4.25;;;;;;;8.60;100.00;99820.88;6314575;22;20082;-90
2023/12/10 01:06:01;;;;;;;21.27;4.07;;;;;;;8.52;100.00;99812.97;6311589;22;20006;-90
2023/12/10 01:08:30;;;;;;;20.63;3.97;;;;;;;8.55;100.00;99836.69;6340213;22;20078;-91
2023/12/10 01:11:21;;;;;;;;;;;;;;;;;;;;;
2023/12/10 01:13:54;;;;;;;26.23;4.60;;;;;;;8.82;100.00;99879.75;6340109;22;20073;-91
2023/12/10 01:16:22;;;;;;;;;;;;;;;8.85;100.00;99888.53;6314151;22;20101;-90
2023/12/10 01:18:49;;;;;;;24.77;4.18;;;;;;;8.54;100.00;99816.50;6313416;22;20344;-92
2023/12/10 01:21:18;;;;;;;20.75;3.67;;;;;;;8.34;100.00;99794.47;6340345;22;20117;-91
2023/12/10 01:23:50;;;;;;;26.92;4.43;;;;;;;8.39;100.00;99806.78;6314875;22;20002;-90
2023/12/10 01:26:18;;;;;;;21.25;3.78;;;;;;;8.53;100.00;99851.59;6314526;22;20007;-91
2023/12/10 01:28:51;;;;;;;25.40;4.80;;;;;;;8.28;100.00;99798.84;6291722;22;20015;-90
2023/12/10 01:31:37;;;;;;;24.63;4.18;;;;;;;8.39;100.00;99825.22;6293665;22;20018;-93
2023/12/10 01:34:05;;;;;;;27.33;4.53;;;;;;;8.25;100.00;99792.69;6317288;22;20036;-91
2023/12/10 01:36:34;;;;;;;27.15;4.25;;;;;;;8.58;100.00;99870.06;6318627;22;20413;-90
2023/12/10 01:39:14;;;;;;;;;;;;;;;;;;;;;
2023/12/10 01:41:49;;;;;;;20.17;4.35;;;;;;;8.33;100.00;99829.56;6350641;22;20022;-91
2023/12/10 01:44:33;;;;;;;20.50;3.55;;;;;;;8.25;100.00;99850.59;6321178;22;20053;-92
2023/12/10 01:47:40;;;;;;;23.77;4.30;;;;;;;8.43;100.00;99855.06;6299488;22;20014;-91
2023/12/10 01:50:15;;;;;;;23.52;4.25;;;;;;;8.30;100.00;99833.06;6351644;22;20388;-95
2023/12/10 01:53:01;;;;;;;24.33;3.80;;;;;;;8.50;100.00;99885.81;6327941;22;20029;-94
2023/12/10 01:59:24;;;;;;;;;;;;;;;;;;;;;
2023/12/10 02:02:15;;;;;;;21.95;3.85;;;;;;;8.64;100.00;99914.81;6353060;22;20037;-93
2023/12/10 02:04:53;;;;;;;23.42;3.67;;;;;;;8.17;100.00;99840.03;6310761;22;20026;-92
2023/12/10 02:07:32;;;;;;;22.27;3.85;;;;;;;8.17;100.00;99860.19;6326936;22;20010;-93
2023/12/10 02:10:31;;;;;;;21.45;3.72;;;;;;;8.11;100.00;99849.66;6329349;22;20011;-91
2023/12/10 02:13:16;;;;;;;17.77;4.00;;;;;;;8.00;100.00;99832.06;6316012;22;20081;-91
2023/12/10 02:16:10;;;;;;;;;;;;;;;;;;;;;
2023/12/10 02:19:22;;;;;;;17.05;3.60;;;;;;;8.32;100.00;99910.28;6349855;22;20023;-91
2023/12/10 02:22:01;;;;;;;;;;;;;;;;;;;;;
2023/12/10 02:24:52;;;;;;;26.90;3.78;;;;;;;8.07;100.00;99890.84;6352411;22;20035;-92
2023/12/10 02:27:46;;;;;;;20.17;3.30;;;;;;;8.24;100.00;99917.25;6328937;22;20482;-91
2023/12/10 02:33:05;;;;;;;23.33;3.70;;;;;;;8.01;100.00;99875.94;6336322;22;20009;-91
2023/12/10 02:35:40;;;;;;;19.63;3.35;;;;;;;7.84;100.00;99868.81;6323410;22;20010;-90
2023/12/10 02:38:21;;;;;;;19.90;3.38;;;;;;;7.89;100.00;99875.84;6300792;22;20018;-90
2023/12/10 02:41:05;;;;;;;17.70;3.75;;;;;;;7.91;100.00;99867.97;6325128;22;20010;-92
2023/12/10 02:44:09;;;;;;;19.02;4.03;;;;;;;7.97;100.00;99903.09;6322811;22;20010;-91
2023/12/10 02:49:42;;;;;;;21.25;3.42;;;;;;;8.12;100.00;99919.81;6354763;22;20022;-90
2023/12/10 02:58:15;;;;;;;15.88;3.42;;;;;;;7.92;100.00;99886.41;6342297;22;20014;-93
2023/12/10 03:01:01;;;;;;;17.45;3.13;;;;;;;8.39;100.00;99970.00;6324368;22;20425;-92
2023/12/10 03:03:29;;;;;;;20.23;3.25;;;;;;;8.21;100.00;99928.63;6322997;22;20007;-91
2023/12/10 03:06:10;;;;;;;;;;;;;;;;;;;;;
2023/12/10 03:09:06;;;;;;;19.10;4.10;;;;;;;8.37;100.00;99971.75;6352581;22;20037;-92
2023/12/10 03:11:53;;;;;;;;;;;;;;;;;;;;;
2023/12/10 03:14:46;;;;;;;21.23;3.53;;;;;;;8.01;99.89;99896.97;6351845;22;20030;-90
2023/12/10 03:17:21;;;;;;;;;;;;;;;8.47;100.00;99972.69;6301554;22;20020;-91
2023/12/10 03:20:00;;;;;;;16.35;3.92;;;;;;;8.00;99.60;99883.78;6321946;22;20270;-91
2023/12/10 03:23:03;;;;;;;23.52;4.25;;;;;;;8.48;98.44;99985.88;6297377;22;20363;-93
2023/12/10 03:25:42;;;;;;;28.05;4.72;;;;;;;8.08;98.75;99958.38;6349999;22;20007;-94
2023/12/10 03:28:47;;;;;;;21.23;3.67;;;;;;;8.14;97.18;99911.06;6350105;22;20033;-93
2023/12/10 03:31:33;;;;;;;;;;;;;;;;;;;;;
2023/12/10 03:34:01;;;;;;;19.55;4.10;;;;;;;8.18;97.19;99936.53;6341129;22;20389;-96
2023/12/10 03:36:34;;;;;;;17.30;3.78;;;;;;;8.55;97.97;100028.91;6341985;22;20038;-93
2023/12/10 03:39:04;;;;;;;16.27;3.13;;;;;;;8.33;97.72;99954.16;6315620;22;20437;-93
2023/12/10 03:41:57;;;;;;;18.13;3.42;;;;;;;8.10;97.23;99932.97;6341658;22;20051;-93
2023/12/10 03:44:31;;;;;;;23.92;4.18;;;;;;;8.23;98.11;99953.22;6343580;22;20067;-95
2023/12/10 03:47:09;;;;;;;18.35;3.65;;;;;;;8.38;97.31;99996.31;6313728;22;20010;-94
2023/12/10 03:49:37;;;;;;;22.77;4.05;;;;;;;8.39;96.64;99984.91;6314321;22;20452;-92
2023/12/10 03:52:13;;;;;;;18.10;3.40;;;;;;;8.36;96.26;99996.28;6345169;22;20034;-94
2023/12/10 03:54:43;;;;;;;16.05;3.70;;;;;;;8.25;96.34;99950.59;6319356;22;20014;-94
2023/12/10 03:57:31;;;;;;;20.95;4.07;;;;;;;8.23;96.88;99961.13;6311838;22;20075;-93
2023/12/10 04:00:34;;;;;;;;;;;;;;;;;;;;;
2023/12/10 04:03:21;;;;;;;;;;;;;;;;;;;;;
2023/12/10 04:05:57;;;;;;;18.52;3.40;;;;;;;8.46;95.17;99966.53;6340707;22;20085;-92
2023/12/10 04:08:35;;;;;;;19.25;3.65;;;;;;;8.46;95.43;99970.94;6312694;22;20435;-92
2023/12/10 04:11:09;;;;;;;17.20;3.60;;;;;;;8.41;94.42;99985.81;6286897;22;20440;-93
2023/12/10 04:13:47;;;;;;;;;;;;;;;;;;;;;
2023/12/10 04:16:28;;;;;;;25.67;3.80;;;;;;;8.31;94.39;99969.06;6314021;22;20078;-91
2023/12/10 04:19:05;;;;;;;21.80;3.45;;;;;;;8.24;94.02;99962.00;6339826;22;20013;-93
2023/12/10 04:21:38;;;;;;;16.63;3.25;;;;;;;8.57;93.87;100019.25;6312097;22;20013;-91
2023/12/10 04:24:14;;;;;;;17.70;3.60;;;;;;;8.26;94.26;99969.03;6312155;22;20010;-92
2023/12/10 04:26:51;;;;;;;18.13;3.50;;;;;;;8.28;94.59;99975.19;6312114;22;20336;-92
2023/12/10 04:29:19;;;;;;;16.67;3.50;;;;;;;8.23;93.46;99984.81;6313966;22;20011;-94
2023/12/10 04:32:00;;;;;;;16.20;3.08;;;;;;;8.29;93.86;100013.78;6311868;22;20329;-93
2023/12/10 04:34:25;;;;;;;25.10;3.47;;;;;;;8.39;94.72;100030.53;6288554;22;20095;-92
2023/12/10 04:37:00;;;;;;;15.02;3.40;;;;;;;8.35;94.23;100017.31;6311872;22;20141;-92
2023/12/10 04:39:47;;;;;;;;;;;;;;;;;;;;;
2023/12/10 04:42:36;;;;;;;18.60;3.30;;;;;;;8.64;93.43;100078.09;6338988;22;20074;-92
2023/12/10 04:45:10;;;;;;;19.02;3.05;;;;;;;8.77;93.30;100085.19;6311588;22;20002;-93
2023/12/10 04:48:04;;;;;;;;;;;;;;;;;;;;;
2023/12/10 04:51:00;;;;;;;18.65;3.30;;;;;;;8.81;92.25;100091.38;6339535;22;20461;-91
2023/12/10 04:53:31;;;;;;;16.73;3.58;;;;;;;8.56;91.45;100048.19;6295882;22;20025;-93
2023/12/10 04:55:59;;;;;;;15.05;3.53;;;;;;;8.68;91.58;100087.78;6339389;22;20002;-93
2023/12/10 04:58:27;;;;;;;16.45;3.40;;;;;;;8.51;90.76;100042.91;6339455;22;20006;-93
2023/12/10 05:01:13;;;;;;;;;;;;;;;;;;;;;
2023/12/10 05:03:38;;;;;;;20.70;3.75;;;;;;;8.51;91.59;100069.25;6291388;22;20480;-91
2023/12/10 05:06:15;;;;;;;21.08;3.35;;;;;;;8.49;91.06;100039.41;6311504;22;20031;-93
2023/12/10 05:08:46;;;;;;;16.45;3.30;;;;;;;8.63;91.04;100081.63;6311734;22;20006;-91
2023/12/10 05:11:44;;;;;;;;;;;;;;;;;;;;;
2023/12/10 05:14:13;;;;;;;13.45;3.65;;;;;;;8.61;90.01;100083.34;6314237;22;20444;-92
2023/12/10 05:16:41;;;;;;;21.02;3.45;;;;;;;8.64;90.13;100112.34;6311749;22;20061;-92
2023/12/10 05:19:19;;;;;;;;;;;;;;;;;;;;;
2023/12/10 05:21:52;;;;;;;15.27;3.35;;;;;;;8.52;90.95;100099.97;6313743;22;20453;-94
2023/12/10 05:24:41;;;;;;;17.35;3.30;;;;;;;8.44;90.71;100089.41;6338960;22;20377;-94
2023/12/10 05:27:20;;;;;;;;;;;;;;;;;;;;;
2023/12/10 05:29:49;;;;;;;20.95;3.22;;;;;;;8.93;91.23;100183.66;6338918;22;20097;-93
2023/12/10 05:32:19;;;;;;;15.20;3.58;;;;;;;8.54;90.63;100111.41;6260507;22;20011;-93
2023/12/10 05:34:57;;;;;;;;;;;;;;;;;;;;;
2023/12/10 05:37:27;;;;;;;20.85;3.83;;;;;;;8.89;90.21;100164.31;6338798;22;20094;-93
2023/12/10 05:39:55;;;;;;;15.27;3.10;;;;;;;8.57;90.39;100129.88;6312046;22;20091;-91
2023/12/10 05:42:26;;;;;;;16.40;3.75;;;;;;;8.81;90.02;100159.88;6311097;22;20326;-92
2023/12/10 05:44:59;;;;;;;18.77;3.10;;;;;;;8.71;89.80;100148.38;6339023;22;20035;-93
2023/12/10 05:47:50;;;;;;;21.67;3.50;;;;;;;8.76;89.40;100137.00;6339018;22;20033;-92
2023/12/10 05:50:20;;;;;;;21.73;3.97;;;;;;;8.86;89.08;100166.03;6336042;22;20337;-93
2023/12/10 05:52:55;;;;;;;;;;;;;;;;;;;;;
2023/12/10 05:55:23;;;;;;;19.15;3.60;;;;;;;8.73;89.65;100165.94;6338601;22;20074;-89
2023/12/10 05:57:54;;;;;;;22.17;3.65;;;;;;;9.05;89.34;100225.91;6338564;22;20014;-92
2023/12/10 06:00:27;;;;;;;21.83;3.60;;;;;;;8.91;89.66;100190.69;6339110;22;20007;-91
2023/12/10 06:03:03;;;;;;;;;;;;;;;;;;;;;
2023/12/10 06:05:41;;;;;;;23.48;3.85;;;;;;;8.61;89.59;100181.69;6338313;22;20074;-92
2023/12/10 06:08:27;;;;;;;20.55;3.70;;;;;;;8.60;90.31;100176.38;6313264;22;20011;-92
2023/12/10 06:11:11;;;;;;;;;;;;;;;;;;;;;
2023/12/10 06:13:57;;;;;;;;;;;;;;;;;;;;;
2023/12/10 06:16:33;;;;;;;21.38;3.40;;;;;;;8.55;90.76;100194.78;6313959;22;20082;-92
2023/12/10 06:19:01;;;;;;;25.55;3.60;;;;;;;8.54;90.25;100187.75;6286240;22;20007;-93
2023/12/10 06:21:36;;;;;;;;;;;;;;;;;;;;;
2023/12/10 06:24:32;;;;;;;23.58;3.70;;;;;;;8.99;90.65;100257.47;6338576;22;20078;-92
2023/12/10 06:27:03;;;;;;;19.98;3.63;;;;;;;8.65;90.03;100216.81;6311107;22;20328;-93
2023/12/10 06:29:51;;;;;;;26.75;4.65;;;;;;;8.75;90.28;100243.25;6286414;22;20440;-92
2023/12/10 06:32:28;;;;;;;;;;;;;;;;;;;;;
2023/12/10 06:34:56;;;;;;;20.48;3.33;;;;;;;8.84;90.09;100292.50;6338124;22;20077;-92
2023/12/10 06:37:37;;;;;;;;;;;;;;;;;;;;;
2023/12/10 06:40:13;;;;;;;15.30;3.40;;;;;;;8.49;90.54;100242.13;6340016;22;20460;-92
2023/12/10 06:42:46;;;;;;;21.35;3.80;;;;;;;8.50;90.52;100228.97;6312814;22;20003;-93
2023/12/10 06:45:39;;;;;;;17.85;3.60;;;;;;;8.72;91.14;100269.56;6312697;22;20425;-93
2023/12/10 06:48:11;;;;;;;19.75;3.72;;;;;;;8.51;90.66;100248.28;6313049;22;20446;-94
2023/12/10 06:50:36;;;;;;;18.10;3.45;;;;;;;8.66;90.39;100297.59;6340675;22;20009;-93
2023/12/10 06:53:14;;;;;;;18.58;3.40;;;;;;;8.49;90.83;100285.16;6286971;22;20011;-93
2023/12/10 06:55:52;;;;;;;;;;;;;;;;;;;;;
2023/12/10 06:58:25;;;;;;;17.25;3.40;;;;;;;8.62;90.65;100301.06;6340290;22;20074;-92
2023/12/10 07:01:04;;;;;;;28.27;3.60;;;;;;;8.77;90.82;100332.81;6312642;22;20084;-92
2023/12/10 07:03:33;;;;;;;25.27;3.33;;;;;;;8.70;90.98;100329.25;6312449;22;20022;-91
2023/12/10 07:06:03;;;;;;;18.35;3.35;;;;;;;8.73;90.43;100317.84;6339933;22;20075;-93
2023/12/10 07:08:32;;;;;;;20.98;4.03;;;;;;;8.63;90.42;100319.50;6287624;22;20140;-91
2023/12/10 07:11:10;;;;;;;22.20;3.95;;;;;;;8.76;90.73;100346.84;6312515;22;19999;-93
2023/12/10 07:13:40;;;;;;;17.48;3.63;;;;;;;8.63;90.18;100327.41;6312851;22;20007;-93
2023/12/10 07:16:06;;;;;;;20.38;4.05;;;;;;;8.49;90.04;100314.09;6340707;22;20018;-93
2023/12/10 07:18:42;;;;;;;;;;;;;;;;;;;;;
2023/12/10 07:21:13;;;;;;;18.02;4.55;;;;;;;8.63;89.69;100327.41;6339932;22;20078;-92
2023/12/10 07:23:38;;;;;;;23.75;4.00;;;;;;;8.53;89.96;100325.56;6312695;22;20018;-92
2023/12/10 07:26:20;;;;;;;19.30;3.28;;;;;;;8.61;89.87;100333.50;6312617;22;20071;-93
2023/12/10 07:28:53;;;;;;;23.33;3.60;;;;;;;8.60;89.94;100339.66;6288638;22;20071;-92
2023/12/10 07:31:31;;;;;;;;;;;;;;;;;;;;;
2023/12/10 07:33:57;;;;;;;19.42;3.50;;;;;;;8.73;89.38;100400.38;6340049;22;20102;-91
2023/12/10 07:36:37;;;;;;;19.27;3.60;;;;;;;8.71;89.33;100383.69;6312631;22;20452;-91
2023/12/10 07:39:13;;;;;;;;;;;;;;;;;;;;;
2023/12/10 07:42:01;;;;;;;21.88;3.50;;;;;;;8.63;89.09;100366.03;6316752;22;20078;-92
2023/12/10 07:44:39;;;;;;;20.77;3.70;;;;;;;8.68;89.88;100404.72;6342475;22;20323;-92
2023/12/10 07:47:05;;;;;;;22.80;3.67;;;;;;;8.51;89.63;100379.94;6316727;22;20049;-91
2023/12/10 07:49:37;;;;;;;18.90;4.32;;;;;;;8.43;89.16;100373.69;6314167;22;20007;-92
2023/12/10 07:52:09;;;;;;;25.33;3.88;;;;;;;8.58;90.16;100407.25;6315623;22;20011;-91
2023/12/10 07:54:47;;;;;;;21.77;3.50;;;;;;;8.62;89.94;100430.13;6319640;22;20032;-91
2023/12/10 07:57:15;;;;;;;19.05;3.50;;;;;;;8.51;89.66;100407.16;6323275;22;20070;-92
2023/12/10 07:59:50;;;;;;;;;;;;;;;;;;;;;
2023/12/10 08:02:19;;;;;;;17.52;3.75;;;;;;;8.59;89.54;100412.53;6352232;22;20022;-92
2023/12/10 08:04:47;;;;;;;21.33;3.92;;;;;;;8.64;91.17;100458.22;6325754;22;20006;-93
2023/12/10 08:07:17;;;;;;;23.33;3.90;;;;;;;8.48;91.13;100422.06;6298669;22;20007;-92
2023/12/10 08:09:47;;;;;;;23.35;3.50;;;;;;;8.86;91.85;100496.25;6323280;22;20017;-90
2023/12/10 08:12:15;;;;;;;15.02;3.13;;;;;;;8.41;91.65;100423.72;6351580;22;20014;-92
2023/12/10 08:14:43;;;;;;;28.63;4.07;;;;;;;8.71;92.32;100465.34;6351394;22;20429;-92
2023/12/10 08:17:11;;;;;;;17.70;3.63;;;;;;;8.41;92.75;100433.38;6352807;22;20058;-93
2023/12/10 08:19:39;;;;;;;20.58;3.17;;;;;;;8.48;92.25;100437.84;6325210;22;20007;-93
2023/12/10 08:22:17;;;;;;;;;;;;;;;;;;;;;
2023/12/10 08:24:53;;;;;;;21.50;3.38;;;;;;;8.81;93.96;100507.59;6329063;22;20029;-92
2023/12/10 08:27:24;;;;;;;20.50;3.78;;;;;;;8.69;94.08;100487.25;6356125;22;20014;-91
2023/12/10 08:30:00;;;;;;;20.60;3.58;;;;;;;8.33;94.70;100449.03;6325224;22;20014;-92
2023/12/10 08:32:33;;;;;;;21.58;4.18;;;;;;;8.34;95.30;100450.78;6320831;22;20011;-92
2023/12/10 08:35:01;;;;;;;21.50;4.38;;;;;;;8.80;95.67;100537.47;6319435;22;20017;-91
2023/12/10 08:37:39;;;;;;;16.10;3.40;;;;;;;8.64;95.20;100504.75;6293467;22;20042;-93
2023/12/10 08:40:16;;;;;;;15.10;3.88;;;;;;;8.38;95.20;100463.16;6294978;22;20007;-92
2023/12/10 08:42:46;;;;;;;19.50;3.50;;;;;;;8.82;95.77;100531.31;6321557;22;20014;-91
2023/12/10 08:45:17;;;;;;;22.23;3.58;;;;;;;8.62;96.54;100512.66;6345341;22;20003;-92
2023/12/10 08:47:55;;;;;;;15.50;3.42;;;;;;;8.86;95.94;100545.44;6346009;22;20077;-92
2023/12/10 08:50:25;;;;;;;19.55;3.70;;;;;;;8.50;95.68;100491.41;6345933;22;20007;-91
2023/12/10 08:52:59;;;;;;;20.80;3.50;;;;;;;8.42;96.51;100467.59;6318260;22;20026;-91
2023/12/10 08:55:32;;;;;;;25.33;3.83;;;;;;;8.71;96.11;100523.28;6293118;22;20041;-92
2023/12/10 08:58:00;;;;;;;20.25;3.70;;;;;;;8.55;96.05;100497.63;6287331;22;20074;-91
2023/12/10 09:00:34;;;;;;;25.38;3.78;;;;;;;8.67;95.35;100496.91;6314608;22;20355;-93
2023/12/10 09:03:02;;;;;;;20.38;4.10;;;;;;;9.07;95.90;100561.50;6312891;22;20086;-91
2023/12/10 09:08:39;;;;;;;;;;;;;;;;;;;;;
2023/12/10 09:11:33;;;;;;;22.85;3.92;;;;;;;9.09;95.38;100540.47;6316679;22;20031;-93
2023/12/10 09:14:10;;;;;;;19.77;3.70;;;;;;;9.22;94.81;100569.63;6318798;22;20003;-91
2023/12/10 09:16:51;;;;;;;;;;;;;;;;;;;;;
2023/12/10 09:19:29;;;;;;;20.15;3.85;;;;;;;8.68;95.77;100498.66;6312800;22;20484;-91
2023/12/10 09:22:06;;;;;;;15.40;3.45;;;;;;;8.73;95.43;100520.66;6285545;22;20011;-90
2023/12/10 09:24:40;;;;;;;25.27;3.78;;;;;;;8.63;95.82;100503.00;6309024;22;20054;-91
2023/12/10 09:27:10;;;;;;;22.10;3.55;;;;;;;8.65;96.65;100510.06;6312776;22;19996;-89
2023/12/10 09:29:46;;;;;;;23.33;4.35;;;;;;;8.64;96.61;100507.38;6310999;22;20012;-92
2023/12/10 09:32:29;;;;;;;27.95;4.32;;;;;;;8.86;96.88;100553.31;6255933;22;20012;-93
2023/12/10 09:35:17;;;;;;;19.83;3.63;;;;;;;8.64;96.94;100507.38;6308101;22;20014;-95
2023/12/10 09:38:17;;;;;;;25.17;4.10;;;;;;;8.83;97.32;100538.38;6284309;22;20082;-92
2023/12/10 09:40:43;;;;;;;19.58;3.40;;;;;;;8.95;96.94;100557.00;6292413;22;20011;-90
2023/12/10 09:43:25;;;;;;;21.55;4.45;;;;;;;8.65;97.12;100506.50;6306129;22;20022;-90
2023/12/10 09:46:31;;;;;;;17.67;3.75;;;;;;;8.82;97.31;100518.16;6283059;22;20019;-96
2023/12/10 09:49:31;;;;;;;;;;;;;;;;;;;;;
2023/12/10 09:51:59;;;;;;;22.23;3.80;;;;;;;8.84;97.27;100539.25;6306502;22;20099;-95
2023/12/10 09:54:42;;;;;;;21.30;4.28;;;;;;;9.19;97.63;100584.50;6307295;22;20011;-94
2023/12/10 09:57:52;;;;;;;;;;;;;;;;;;;;;
2023/12/10 10:00:40;;;;;;;18.30;3.38;;;;;;;8.86;97.91;100501.50;6316207;22;20095;-93
2023/12/10 10:03:20;;;;;;;;;;;;;;;;;;;;;
2023/12/10 10:05:56;;;;;;;22.92;3.28;;;;;;;9.05;97.79;100529.00;6338263;22;20077;-92
2023/12/10 10:08:58;;;;;;;22.52;3.78;;;;;;;8.96;97.20;100507.81;6285650;22;20033;-92
2023/12/10 10:11:29;;;;;;;21.40;5.33;;;;;;;8.96;98.44;100510.44;6312019;22;20011;-91
2023/12/10 10:14:23;;;;;;;;;;;;;;;;;;;;;
2023/12/10 10:16:49;;;;;;;19.73;4.57;;;;;;;9.15;98.47;100519.44;6315041;22;20382;-92
2023/12/10 10:19:22;;;;;;;23.70;3.60;;;;;;;9.35;98.16;100512.63;6340198;22;20010;-91
2023/12/10 10:25:35;;;;;;;18.75;3.28;;;;;;;10.08;95.84;100544.06;6280973;22;20007;-89
2023/12/10 10:28:01;;;;;;;24.55;3.80;;;;;;;10.25;95.35;100547.75;6314089;22;20018;-89
2023/12/10 10:30:28;;;;;;;15.20;3.28;;;;;;;10.18;94.44;100510.69;6313268;22;20333;-89
2023/12/10 10:32:56;;;;;;;23.48;3.72;;;;;;;10.66;93.28;100562.09;6340143;22;20446;-88
2023/12/10 10:35:25;;;;;;;23.58;4.85;;;;;;;10.72;92.27;100559.50;6312745;22;20029;-88
2023/12/10 10:37:51;;;;;;;17.30;3.30;;;;;;;10.80;92.86;100556.91;6340120;22;20014;-88
2023/12/10 10:40:17;;;;;;;16.00;3.58;;;;;;;10.77;91.98;100550.72;6312439;22;20022;-87
2023/12/10 10:42:44;;;;;;;22.85;3.60;;;;;;;10.74;91.22;100547.16;6340528;22;20309;-86
2023/12/10 10:45:10;;;;;;;18.13;3.25;;;;;;;10.90;91.85;100550.78;6340077;22;20007;-87
2023/12/10 10:47:37;;;;;;;20.52;3.42;;;;;;;11.28;90.09;100587.97;6339703;22;20041;-87
2023/12/10 10:50:04;;;;;;;19.52;3.47;;;;;;;11.38;89.94;100576.50;6340068;22;20392;-89
2023/12/10 10:52:32;;;;;;;15.25;3.60;;;;;;;11.58;89.59;100595.09;6286567;22;20010;-87
2023/12/10 10:54:59;;;;;;;17.15;3.33;;;;;;;11.61;88.19;100581.88;6313714;22;20007;-89
2023/12/10 10:57:36;;;;;;;17.95;3.35;;;;;;;11.72;88.29;100603.06;6339557;22;20011;-89
2023/12/10 11:00:17;;;;;;;23.45;3.67;;;;;;;11.38;88.69;100528.91;6288039;22;20017;-89
2023/12/10 11:02:43;;;;;;;21.88;3.75;;;;;;;11.74;87.84;100566.91;6339771;22;20030;-88
2023/12/10 11:05:24;;;;;;;19.42;3.50;;;;;;;11.77;88.51;100559.84;6313123;22;20025;-92
2023/12/10 11:07:50;;;;;;;22.42;4.03;;;;;;;11.59;86.70;100556.28;6314721;22;20034;-90
2023/12/10 11:10:16;;;;;;;17.42;3.67;;;;;;;11.66;87.65;100576.59;6342411;22;20091;-92
2023/12/10 11:12:42;;;;;;;19.00;3.58;;;;;;;11.65;88.25;100569.53;6312345;22;20010;-87
2023/12/10 11:15:17;;;;;;;14.80;3.28;;;;;;;11.69;88.15;100572.19;6312250;22;20081;-86
2023/12/10 11:17:54;;;;;;;19.55;3.45;;;;;;;11.66;87.00;100566.00;6339459;22;20448;-87
2023/12/10 11:20:43;;;;;;;19.77;4.10;;;;;;;11.45;87.14;100564.19;6339834;22;20003;-87
2023/12/10 11:23:11;;;;;;;15.10;3.33;;;;;;;11.53;88.08;100547.47;6341124;22;20007;-87
2023/12/10 11:25:37;;;;;;;17.92;3.58;;;;;;;11.74;89.01;100548.38;6339505;22;20085;-86
2023/12/10 11:28:17;;;;;;;24.23;3.60;;;;;;;11.92;86.78;100553.72;6339780;22;20014;-87
2023/12/10 11:30:44;;;;;;;23.15;4.05;;;;;;;11.92;85.09;100551.06;6312180;22;20102;-85
2023/12/10 11:33:11;;;;;;;20.08;3.83;;;;;;;12.03;85.05;100554.63;6339400;22;20010;-87
2023/12/10 11:35:37;;;;;;;12.68;3.20;;;;;;;12.05;83.66;100529.91;6311443;22;20040;-84
2023/12/10 11:38:04;;;;;;;15.57;3.30;;;;;;;12.30;83.47;100542.25;6286421;22;20007;-87
2023/12/10 11:40:30;;;;;;;17.48;3.20;;;;;;;12.47;84.94;100540.44;6312520;22;20418;-86
2023/12/10 11:43:21;;;;;;;18.75;3.33;;;;;;;12.64;82.90;100529.81;6339565;22;20009;-86
2023/12/10 11:45:47;;;;;;;21.27;4.50;;;;;;;12.63;80.71;100514.75;6307046;22;20017;-87
2023/12/10 11:48:12;;;;;;;16.20;3.72;;;;;;;12.95;82.40;100535.88;6312435;22;20077;-87
2023/12/10 11:50:38;;;;;;;17.48;3.67;;;;;;;13.07;81.05;100540.25;6339224;22;20027;-87
2023/12/10 11:53:05;;;;;;;17.52;3.80;;;;;;;13.12;81.36;100529.63;6312077;22;20038;-86
2023/12/10 11:55:31;;;;;;;15.20;3.40;;;;;;;12.97;79.43;100544.69;6339408;22;20011;-86
2023/12/10 11:57:58;;;;;;;18.63;4.13;;;;;;;12.67;80.49;100523.59;6311344;22;20429;-87
2023/12/10 12:00:24;;;;;;;18.30;3.70;;;;;;;12.45;81.62;100515.69;6312761;22;20076;-87
2023/12/10 12:02:52;;;;;;;21.20;4.05;;;;;;;12.23;82.40;100525.44;6311169;22;20056;-86
2023/12/10 12:05:18;;;;;;;21.05;4.40;;;;;;;12.11;84.81;100543.13;6338341;22;20011;-87
2023/12/10 12:07:44;;;;;;;17.63;3.58;;;;;;;11.94;84.72;100540.47;6310955;22;19999;-86
2023/12/10 12:10:12;;;;;;;20.15;4.00;;;;;;;11.46;85.42;100482.19;6338587;22;20007;-87
2023/12/10 12:12:45;;;;;;;22.13;4.57;;;;;;;11.63;86.18;100535.13;6285883;22;20375;-87
2023/12/10 12:15:12;;;;;;;29.27;4.50;;;;;;;11.49;86.70;100532.47;6311188;22;20504;-85
2023/12/10 12:17:38;;;;;;;22.27;4.53;;;;;;;11.39;88.00;100545.66;6338936;22;20441;-88
2023/12/10 12:20:17;;;;;;;22.50;5.20;;;;;;;11.29;88.55;100539.47;6311674;22;20002;-89
2023/12/10 12:22:44;;;;;;;24.02;4.40;;;;;;;11.24;90.21;100523.56;6312080;22;20432;-88
2023/12/10 12:25:09;;;;;;;26.48;4.70;;;;;;;11.28;90.67;100528.00;6338884;22;20002;-87
2023/12/10 12:27:35;;;;;;;38.90;5.50;;;;;;;11.17;90.64;100503.28;6338747;22;20082;-88
2023/12/10 12:30:00;;;;;;;27.88;4.63;;;;;;;11.14;91.68;100489.19;6338167;22;20052;-89
2023/12/10 12:32:26;;;;;;;31.35;5.57;;;;;;;11.08;91.25;100468.00;6311088;22;20422;-87
2023/12/10 12:34:51;;;;;;;26.60;5.13;;;;;;;11.22;91.89;100487.41;6310382;22;20010;-87
2023/12/10 12:37:20;;;;;;;38.08;4.90;;;;;;;11.22;92.45;100490.06;6310907;22;20266;-86
2023/12/10 12:39:46;;;;;;;25.10;4.55;;;;;;;11.13;93.84;100467.13;6285192;22;20010;-86
2023/12/10 12:42:12;;;;;;;26.30;4.72;;;;;;;11.19;93.70;100472.44;6310340;22;20007;-86
2023/12/10 12:44:40;;;;;;;32.15;4.72;;;;;;;11.11;93.48;100444.22;6285004;22;20017;-87
2023/12/10 12:47:05;;;;;;;33.45;5.45;;;;;;;11.02;93.94;100421.28;6338732;22;20093;-89
2023/12/10 12:49:31;;;;;;;35.83;5.80;;;;;;;11.18;93.88;100456.59;6339797;22;20401;-87
2023/12/10 12:51:56;;;;;;;34.50;5.90;;;;;;;11.19;94.80;100474.22;6259600;22;20413;-86
2023/12/10 12:54:21;;;;;;;30.38;5.43;;;;;;;11.01;95.22;100460.06;6338377;22;20013;-87
2023/12/10 12:56:47;;;;;;;28.30;4.82;;;;;;;11.14;95.64;100468.03;6259471;22;20006;-87
2023/12/10 12:59:15;;;;;;;33.55;5.20;;;;;;;10.98;96.32;100441.53;6314333;22;20037;-87
2023/12/10 13:01:41;;;;;;;30.25;5.10;;;;;;;11.07;96.46;100456.53;6285875;22;20011;-86
2023/12/10 13:04:07;;;;;;;38.35;5.47;;;;;;;11.07;96.39;100458.31;6339013;22;20068;-86
2023/12/10 13:06:32;;;;;;;28.52;4.82;;;;;;;11.07;96.80;100467.13;6338557;22;20426;-87
2023/12/10 13:09:00;;;;;;;36.72;6.15;;;;;;;10.98;97.22;100460.03;6311636;22;20007;-88
2023/12/10 13:11:26;;;;;;;33.08;5.07;;;;;;;11.03;97.70;100470.63;6310965;22;20010;-86
2023/12/10 13:13:51;;;;;;;35.50;5.97;;;;;;;11.01;97.37;100461.81;6311412;22;20467;-86